createdAt,value
2019-04-06T00:03:53.067Z,13.88
2019-04-06T00:08:56.385Z,14.25
2019-04-06T00:14:00.714Z,15.58
2019-04-06T00:19:04.052Z,13.48
2019-04-06T00:24:07.837Z,13.88
2019-04-06T00:29:11.905Z,14.47
2019-04-06T00:34:15.470Z,14.60
2019-04-06T00:39:18.884Z,13.15
2019-04-06T00:44:22.737Z,14.18
2019-04-06T00:49:26.718Z,14.23
2019-04-06T00:54:30.168Z,15.25
2019-04-06T00:59:34.597Z,14.65
2019-04-06T01:04:37.897Z,14.25
2019-04-06T01:09:42.119Z,13.90
2019-04-06T01:14:45.466Z,14.87
2019-04-06T01:19:48.934Z,14.33
2019-04-06T01:24:52.196Z,14.80
2019-04-06T01:29:55.579Z,13.15
2019-04-06T01:34:58.911Z,14.80
2019-04-06T01:40:03.340Z,14.07
2019-04-06T01:45:08.051Z,14.15
2019-04-06T01:50:12.886Z,13.95
2019-04-06T01:55:17.028Z,13.18
2019-04-06T02:00:20.414Z,14.10
2019-04-06T02:05:23.749Z,13.43
2019-04-06T02:10:27.726Z,15.28
2019-04-06T02:15:33.896Z,14.75
2019-04-06T02:20:37.197Z,14.10
2019-04-06T02:25:40.496Z,13.90
2019-04-06T02:30:55.683Z,14.43
2019-04-06T02:36:18.610Z,14.65
2019-04-06T02:41:59.905Z,14.43
2019-04-06T02:47:03.242Z,14.63
2019-04-06T02:52:06.893Z,14.73
2019-04-06T02:57:10.326Z,13.98
2019-04-06T03:02:14.060Z,14.85
2019-04-06T03:07:19.314Z,14.13
2019-04-06T03:12:22.842Z,15.08
2019-04-06T03:17:26.182Z,15.25
2019-04-06T03:22:29.614Z,15.50
2019-04-06T03:27:33.427Z,14.18
2019-04-06T03:32:39.092Z,14.18
2019-04-06T03:37:43.100Z,13.70
2019-04-06T03:42:46.729Z,14.73
2019-04-06T03:47:50.061Z,13.65
2019-04-06T03:52:53.761Z,14.60
2019-04-06T03:57:57.205Z,14.87
2019-04-06T04:03:00.987Z,14.83
2019-04-06T04:08:04.642Z,14.15
2019-04-06T04:13:07.942Z,12.95
2019-04-06T04:18:11.539Z,13.98
2019-04-06T04:23:15.456Z,14.30
2019-04-06T04:28:18.752Z,13.78
2019-04-06T04:33:22.602Z,13.65
2019-04-06T04:38:25.998Z,13.75
2019-04-06T04:43:29.352Z,14.33
2019-04-06T04:48:32.746Z,13.93
2019-04-06T04:53:36.166Z,14.03
2019-04-06T04:58:40.535Z,13.08
2019-04-06T05:03:44.383Z,14.13
2019-04-06T05:08:47.760Z,13.85
2019-04-06T05:14:47.129Z,13.58
2019-04-06T05:19:51.452Z,13.40
2019-04-06T05:24:55.237Z,13.43
2019-04-06T05:29:58.725Z,14.38
2019-04-06T05:35:03.263Z,13.43
2019-04-06T05:40:06.724Z,13.15
2019-04-06T05:45:10.865Z,13.05
2019-04-06T05:50:14.421Z,13.68
2019-04-06T05:55:18.284Z,13.53
2019-04-06T06:00:21.826Z,13.00
2019-04-06T06:05:25.166Z,12.35
2019-04-06T06:10:29.874Z,12.90
2019-04-06T06:15:33.533Z,11.75
2019-04-06T06:20:37.299Z,12.63
2019-04-06T06:25:41.064Z,12.82
2019-04-06T06:30:47.443Z,12.75
2019-04-06T06:35:51.050Z,12.70
2019-04-06T06:40:54.466Z,12.50
2019-04-06T06:45:58.217Z,13.22
2019-04-06T06:51:02.475Z,13.03
2019-04-06T06:56:05.913Z,13.58
2019-04-06T07:01:09.446Z,12.47
2019-04-06T07:06:12.777Z,12.40
2019-04-06T07:11:16.708Z,11.83
2019-04-06T07:16:20.044Z,11.48
2019-04-06T07:21:24.173Z,12.33
2019-04-06T07:26:28.362Z,11.95
2019-04-06T07:31:32.026Z,11.28
2019-04-06T07:36:35.681Z,12.10
2019-04-06T07:41:39.124Z,11.10
2019-04-06T07:46:42.449Z,11.40
2019-04-06T07:51:45.945Z,10.55
2019-04-06T07:56:51.653Z,11.30
2019-04-06T08:01:56.502Z,10.80
2019-04-06T08:06:59.905Z,10.63
2019-04-06T08:12:03.289Z,11.43
2019-04-06T08:17:06.668Z,11.75
2019-04-06T08:22:10.173Z,10.63
2019-04-06T08:27:14.085Z,11.45
2019-04-06T08:32:17.599Z,11.45
2019-04-06T08:37:21.480Z,11.57
2019-04-06T08:42:25.564Z,10.82
2019-04-06T08:47:28.886Z,11.00
2019-04-06T08:52:32.223Z,11.70
2019-04-06T08:57:35.795Z,10.00
2019-04-06T09:02:39.388Z,10.45
2019-04-06T09:07:42.962Z,10.08
2019-04-06T09:12:46.353Z,11.10
2019-04-06T09:17:49.757Z,10.63
2019-04-06T09:22:53.782Z,10.88
2019-04-06T09:27:58.312Z,11.33
2019-04-06T09:33:01.710Z,10.88
2019-04-06T09:38:07.625Z,11.50
2019-04-06T09:43:11.184Z,10.32
2019-04-06T09:48:35.366Z,11.00
2019-04-06T09:54:06.319Z,12.68
2019-04-06T09:59:36.277Z,12.00
2019-04-06T10:05:00.406Z,12.23
2019-04-06T10:10:11.821Z,12.00
2019-04-06T10:15:37.790Z,11.53
2019-04-06T10:20:56.305Z,11.65
2019-04-06T10:26:25.354Z,11.35
2019-04-06T10:31:47.359Z,10.85
2019-04-06T10:37:01.001Z,11.90
2019-04-06T10:42:11.009Z,11.95
2019-04-06T10:47:29.467Z,11.48
2019-04-06T10:52:48.447Z,11.43
2019-04-06T10:58:24.728Z,10.68
2019-04-06T11:03:35.879Z,11.65
2019-04-06T11:09:07.943Z,11.38
2019-04-06T11:14:31.159Z,11.48
2019-04-06T11:20:09.554Z,12.68
2019-04-06T11:25:22.031Z,11.60
2019-04-06T11:30:43.642Z,11.08
2019-04-06T11:36:22.022Z,12.23
2019-04-06T11:41:33.172Z,10.65
2019-04-06T11:46:53.259Z,11.38
2019-04-06T11:52:05.385Z,11.55
2019-04-06T11:57:28.540Z,11.53
2019-04-06T12:02:40.937Z,11.60
2019-04-06T12:07:52.857Z,11.60
2019-04-06T12:13:27.898Z,11.25
2019-04-06T12:18:38.590Z,11.57
2019-04-06T12:24:16.774Z,11.33
2019-04-06T12:29:45.301Z,11.83
2019-04-06T12:34:58.570Z,11.68
2019-04-06T12:40:22.594Z,10.35
2019-04-06T12:45:44.561Z,11.48
2019-04-06T12:51:08.864Z,11.18
2019-04-06T12:56:34.490Z,11.15
2019-04-06T13:01:52.880Z,10.48
2019-04-06T13:07:25.819Z,11.10
2019-04-06T13:12:54.574Z,10.78
2019-04-06T13:18:20.700Z,9.95
2019-04-06T13:23:48.692Z,10.25
2019-04-06T13:29:01.739Z,10.80
2019-04-06T13:34:23.031Z,10.48
2019-04-06T13:39:40.101Z,10.78
2019-04-06T13:44:50.444Z,11.28
2019-04-06T13:50:17.375Z,10.65
2019-04-06T13:55:43.334Z,10.75
2019-04-06T14:01:17.605Z,10.38
2019-04-06T14:06:34.701Z,10.00
2019-04-06T14:11:57.989Z,9.70
2019-04-06T14:17:10.343Z,10.53
2019-04-06T14:22:36.328Z,9.85
2019-04-06T14:27:53.465Z,9.13
2019-04-06T14:33:16.754Z,9.83
2019-04-06T14:38:49.067Z,9.75
2019-04-06T14:43:57.908Z,9.68
2019-04-06T14:49:31.280Z,9.30
2019-04-06T14:54:41.620Z,9.95
2019-04-06T15:00:23.032Z,8.93
2019-04-06T15:05:58.323Z,9.90
2019-04-06T15:11:21.713Z,10.20
2019-04-06T15:16:42.396Z,9.98
2019-04-06T15:21:53.370Z,10.05
2019-04-06T15:27:14.607Z,9.28
2019-04-06T15:32:46.390Z,10.00
2019-04-06T15:38:07.547Z,9.95
2019-04-06T15:43:42.714Z,10.40
2019-04-06T15:49:05.893Z,10.15
2019-04-06T15:54:19.018Z,10.75
2019-04-06T15:59:30.208Z,10.55
2019-04-06T16:04:45.737Z,10.75
2019-04-06T16:10:28.323Z,10.10
2019-04-06T16:15:58.223Z,10.90
2019-04-06T16:21:21.220Z,10.50
2019-04-06T16:26:34.596Z,10.45
2019-04-06T16:31:57.531Z,11.43
2019-04-06T16:37:13.293Z,11.10
2019-04-06T16:42:33.848Z,11.80
2019-04-06T16:48:12.143Z,11.45
2019-04-06T16:53:41.754Z,12.30
2019-04-06T16:58:52.332Z,11.30
2019-04-06T17:04:13.548Z,11.85
2019-04-06T17:09:52.434Z,12.43
2019-04-06T17:15:09.571Z,11.78
2019-04-06T17:20:28.646Z,12.93
2019-04-06T17:26:10.518Z,12.98
2019-04-06T17:31:51.861Z,13.03
2019-04-06T17:37:06.483Z,20.88
2019-04-06T17:42:16.765Z,17.85
2019-04-06T17:47:29.243Z,15.48
2019-04-06T17:53:01.899Z,14.63
2019-04-06T17:58:37.320Z,16.07
2019-04-06T18:03:55.228Z,17.05
2019-04-06T18:09:10.022Z,17.50
2019-04-06T18:14:15.519Z,17.35
2019-04-06T18:19:20.686Z,15.08
2019-04-06T18:24:24.076Z,15.58
2019-04-06T18:29:27.559Z,16.42
2019-04-06T18:34:31.028Z,14.30
2019-04-06T18:39:36.314Z,13.58
2019-04-06T18:44:40.714Z,13.13
2019-04-06T18:49:44.620Z,12.88
2019-04-06T18:54:47.959Z,12.63
2019-04-06T18:59:51.510Z,13.05
2019-04-06T19:04:55.254Z,13.00
2019-04-06T19:09:59.155Z,13.32
2019-04-06T19:15:03.339Z,12.30
2019-04-06T19:20:08.930Z,13.08
2019-04-06T19:25:12.685Z,12.93
2019-04-06T19:30:17.210Z,13.45
2019-04-06T19:38:34.717Z,13.35
2019-04-06T19:43:38.173Z,13.10
2019-04-06T19:48:42.622Z,12.47
2019-04-06T19:53:46.714Z,13.83
2019-04-06T19:58:50.339Z,13.35
2019-04-06T20:03:53.726Z,13.95
2019-04-06T20:08:58.280Z,14.15
2019-04-06T20:14:02.415Z,14.07
2019-04-06T20:19:05.805Z,13.83
2019-04-06T20:24:10.589Z,14.35
2019-04-06T20:29:14.023Z,14.65
2019-04-06T20:34:17.535Z,14.87
2019-04-06T20:39:20.997Z,15.13
2019-04-06T20:44:27.792Z,16.60
2019-04-06T20:49:31.190Z,14.80
2019-04-06T20:54:35.485Z,15.65
2019-04-06T20:59:38.744Z,16.55
2019-04-06T21:04:42.784Z,17.32
2019-04-06T21:09:46.237Z,17.20
2019-04-06T21:14:49.539Z,16.97
2019-04-06T21:19:52.886Z,17.35
2019-04-06T21:24:56.593Z,18.27
2019-04-06T21:29:59.961Z,17.90
2019-04-06T21:35:04.655Z,17.40
2019-04-06T21:40:10.179Z,25.02
2019-04-06T21:45:14.035Z,39.48
2019-04-06T21:50:17.526Z,30.95
2019-04-06T21:55:20.921Z,22.32
2019-04-06T22:00:38.426Z,18.50
2019-04-06T22:05:42.720Z,18.55
2019-04-06T22:10:47.441Z,18.05
2019-04-06T22:15:50.982Z,18.35
2019-04-06T22:20:54.771Z,17.32
2019-04-06T22:25:58.214Z,17.82
2019-04-06T22:31:02.400Z,16.80
2019-04-06T22:36:06.655Z,18.35
2019-04-06T22:41:10.171Z,18.50
2019-04-06T22:46:14.663Z,18.98
2019-04-06T22:51:18.030Z,19.23
2019-04-06T22:56:21.894Z,18.75
2019-04-06T23:01:27.674Z,18.23
2019-04-06T23:06:38.152Z,18.30
2019-04-06T23:11:41.535Z,17.85
2019-04-06T23:16:45.980Z,18.07
2019-04-06T23:21:49.723Z,19.25
2019-04-06T23:26:53.193Z,21.00
2019-04-06T23:31:56.822Z,20.70
2019-04-06T23:37:00.767Z,20.40
2019-04-06T23:42:04.657Z,20.77
2019-04-06T23:47:08.557Z,21.33
2019-04-06T23:52:12.197Z,20.65
2019-04-06T23:57:15.532Z,20.90
